Huvudsida
METAR-TAF:

METAR-TAF

Flygplatser :

Leknes flygplats

Leknes, Norge

latitud: 68-09N, longitud: 013-37E, höjd: 2 m

Aktuellt väderrapport

Denna rapport gjordes för 2 timmar och 56 minuter sedan, klockan 10:50 UTC
Vind 6 kt från ost/sydost
Temperatur 16°C
Fuktighet 63%
Tryck 1002 hPa
Sikt 10 km eller mer
Få moln på en höjd av 3000 ft

METAR: ENLK 171050Z 11006KT 9999 FEW030 16/09 Q1002

Tid: 15:46 (13:46 UTC)


TAF: saknas

Aktuella väderrapporter och prognoser från 4000 flygplatser (METAR- och TAF-rapporter).

De tillgängliga stationerna syns som gula och röda prickar på kartan.

För musen över prickarna för att se namnen på stationerna.

Klicka sedan för att få väderrapporter och prognoser.

För att ändra kartan: Klicka på de gröna knapparna med ett svart kors på för att zooma in; den gröna knappen med ett streck på för att zooma ut; eller på de gröna pilarna för angränsande kartor.


METAR-TAF: